createdAt,value
2022-11-06T00:02:21.027Z,5.15
2022-11-06T00:05:26.771Z,3.35
2022-11-06T00:08:13.398Z,5.75
2022-11-06T00:11:00.355Z,2.90
2022-11-06T00:13:52.211Z,6.05
2022-11-06T00:16:39.622Z,5.85
2022-11-06T00:19:25.538Z,5.97
2022-11-06T00:22:11.866Z,3.88
2022-11-06T00:24:58.181Z,3.25
2022-11-06T00:27:44.301Z,3.58
2022-11-06T00:30:30.673Z,5.55
2022-11-06T00:33:16.686Z,4.43
2022-11-06T00:36:07.654Z,3.33
2022-11-06T00:38:55.215Z,5.95
2022-11-06T00:41:41.615Z,3.83
2022-11-06T00:44:28.028Z,4.55
2022-11-06T00:47:13.942Z,2.25
2022-11-06T00:49:59.742Z,4.50
2022-11-06T00:52:45.770Z,2.80
2022-11-06T00:55:31.882Z,4.82
2022-11-06T00:58:17.909Z,8.65
2022-11-06T01:01:13.607Z,3.38
2022-11-06T01:04:02.002Z,8.68
2022-11-06T01:06:51.008Z,3.95
2022-11-06T01:09:37.208Z,3.17
2022-11-06T01:12:23.195Z,2.25
2022-11-06T01:15:09.449Z,3.40
2022-11-06T01:17:55.404Z,8.77
2022-11-06T01:20:41.461Z,4.28
2022-11-06T01:23:28.293Z,6.13
2022-11-06T01:26:18.688Z,3.88
2022-11-06T01:29:17.654Z,5.18
2022-11-06T01:32:04.111Z,5.53
2022-11-06T01:34:51.514Z,4.25
2022-11-06T01:37:37.744Z,9.38
2022-11-06T01:40:24.506Z,2.33
2022-11-06T01:43:24.234Z,3.85
2022-11-06T01:46:10.906Z,6.20
2022-11-06T01:49:01.678Z,2.63
2022-11-06T01:51:54.759Z,3.85
2022-11-06T01:54:44.722Z,4.20
2022-11-06T01:57:30.874Z,2.53
2022-11-06T02:00:20.200Z,2.97
2022-11-06T02:03:07.041Z,3.15
2022-11-06T02:05:53.893Z,4.55
2022-11-06T02:08:40.343Z,2.58
2022-11-06T02:11:26.287Z,2.05
2022-11-06T02:14:28.562Z,3.55
2022-11-06T02:17:29.618Z,2.92
2022-11-06T02:20:29.169Z,3.03
2022-11-06T02:23:38.665Z,3.60
2022-11-06T02:26:46.332Z,3.20
2022-11-06T02:29:38.598Z,6.53
2022-11-06T02:32:40.339Z,7.55
2022-11-06T02:35:33.877Z,5.85
2022-11-06T02:38:35.642Z,3.95
2022-11-06T02:41:29.358Z,8.70
2022-11-06T02:47:11.167Z,4.65
2022-11-06T02:50:12.095Z,6.45
2022-11-06T02:53:02.617Z,4.40
2022-11-06T02:55:52.168Z,6.30
2022-11-06T02:58:46.153Z,8.75
2022-11-06T03:01:40.246Z,4.70
2022-11-06T03:04:32.341Z,7.82
2022-11-06T03:07:36.508Z,8.23
2022-11-06T03:10:28.794Z,7.82
2022-11-06T03:13:22.900Z,4.97
2022-11-06T03:16:13.085Z,6.60
2022-11-06T03:19:04.534Z,7.68
2022-11-06T03:22:10.306Z,3.78
2022-11-06T03:25:00.125Z,9.70
2022-11-06T03:28:01.744Z,10.43
2022-11-06T03:30:55.844Z,6.55
2022-11-06T03:33:48.035Z,4.53
2022-11-06T03:36:43.585Z,8.88
2022-11-06T03:39:36.451Z,5.35
2022-11-06T03:42:26.297Z,4.45
2022-11-06T03:45:19.080Z,8.75
2022-11-06T03:48:14.430Z,5.45
2022-11-06T03:51:16.811Z,6.43
2022-11-06T03:54:10.408Z,5.00
2022-11-06T03:57:22.822Z,7.20
2022-11-06T04:00:10.722Z,5.00
2022-11-06T04:03:06.417Z,2.00
2022-11-06T04:05:58.107Z,9.13
2022-11-06T04:09:04.679Z,2.28
2022-11-06T04:12:22.204Z,2.20
2022-11-06T04:15:12.275Z,2.33
2022-11-06T04:17:58.304Z,3.63
2022-11-06T04:21:26.471Z,2.15
2022-11-06T04:24:40.046Z,3.60
2022-11-06T04:27:44.165Z,1.80
2022-11-06T04:30:37.751Z,2.58
2022-11-06T04:34:02.271Z,3.00
2022-11-06T04:37:13.271Z,2.47
2022-11-06T04:40:22.724Z,1.55
2022-11-06T04:43:18.202Z,2.17
2022-11-06T04:46:06.950Z,1.27
2022-11-06T04:48:54.972Z,2.58
2022-11-06T04:51:43.253Z,2.33
2022-11-06T04:54:30.172Z,3.72
2022-11-06T04:57:16.339Z,3.47
2022-11-06T05:00:02.471Z,3.85
2022-11-06T05:02:48.971Z,5.78
2022-11-06T05:05:35.137Z,9.52
2022-11-06T05:08:21.536Z,6.78
2022-11-06T05:11:13.232Z,10.10
2022-11-06T05:13:59.775Z,10.32
2022-11-06T05:16:45.906Z,8.57
2022-11-06T05:19:32.093Z,8.70
2022-11-06T05:22:36.394Z,9.80
2022-11-06T05:28:08.962Z,10.07
2022-11-06T05:30:54.893Z,19.50
2022-11-06T05:33:41.309Z,12.73
2022-11-06T05:36:27.200Z,7.30
2022-11-06T05:39:13.331Z,6.72
2022-11-06T05:42:00.149Z,8.43
2022-11-06T05:44:46.569Z,6.00
2022-11-06T05:47:34.405Z,4.75
2022-11-06T05:50:20.565Z,7.10
2022-11-06T05:53:07.010Z,5.28
2022-11-06T05:55:53.165Z,9.75
2022-11-06T05:58:39.057Z,5.05
2022-11-06T06:01:25.159Z,8.75
2022-11-06T06:04:11.084Z,9.02
2022-11-06T06:06:57.091Z,3.78
2022-11-06T06:09:43.238Z,5.85
2022-11-06T06:12:29.261Z,10.35
2022-11-06T06:15:15.307Z,7.50
2022-11-06T06:18:01.946Z,9.10
2022-11-06T06:20:48.088Z,9.20
2022-11-06T06:23:34.422Z,5.13
2022-11-06T06:26:20.419Z,6.40
2022-11-06T06:29:07.827Z,12.35
2022-11-06T06:31:54.090Z,5.03
2022-11-06T06:34:40.142Z,4.05
2022-11-06T06:37:26.045Z,6.20
2022-11-06T06:40:13.088Z,3.53
2022-11-06T06:42:58.972Z,6.28
2022-11-06T06:45:44.787Z,5.55
2022-11-06T06:48:31.867Z,7.75
2022-11-06T06:51:23.566Z,7.18
2022-11-06T06:54:11.704Z,8.43
2022-11-06T06:56:57.795Z,13.60
2022-11-06T06:59:44.014Z,7.90
2022-11-06T07:02:29.969Z,11.20
2022-11-06T07:05:18.037Z,9.20
2022-11-06T07:08:05.085Z,12.75
2022-11-06T07:10:51.598Z,10.90
2022-11-06T07:13:37.708Z,11.70
2022-11-06T07:16:27.912Z,5.28
2022-11-06T07:19:15.504Z,12.82
2022-11-06T07:22:01.267Z,9.70
2022-11-06T07:24:47.205Z,13.68
2022-11-06T07:27:33.721Z,11.50
2022-11-06T07:30:20.093Z,7.47
2022-11-06T07:33:06.290Z,8.57
2022-11-06T07:35:52.523Z,13.43
2022-11-06T07:38:41.195Z,12.18
2022-11-06T07:41:27.598Z,16.33
2022-11-06T07:44:16.499Z,9.65
2022-11-06T07:47:02.554Z,11.88
2022-11-06T07:49:51.427Z,9.95
2022-11-06T07:52:38.709Z,11.30
2022-11-06T07:55:25.276Z,10.88
2022-11-06T07:58:11.163Z,10.80
2022-11-06T08:00:58.854Z,8.00
2022-11-06T08:03:45.438Z,7.97
2022-11-06T08:06:31.389Z,13.27
2022-11-06T08:09:17.343Z,9.10
2022-11-06T08:12:03.963Z,11.82
2022-11-06T08:14:50.079Z,11.60
2022-11-06T08:17:36.260Z,13.73
2022-11-06T08:20:22.081Z,13.68
2022-11-06T08:23:11.080Z,10.20
2022-11-06T08:26:02.456Z,8.82
2022-11-06T08:28:49.761Z,9.90
2022-11-06T08:31:35.507Z,11.25
2022-11-06T08:34:21.665Z,7.85
2022-11-06T08:37:09.054Z,9.10
2022-11-06T08:39:54.770Z,7.20
2022-11-06T08:42:40.533Z,10.10
2022-11-06T08:45:26.410Z,10.18
2022-11-06T08:48:12.248Z,7.50
2022-11-06T08:50:58.306Z,8.88
2022-11-06T08:53:44.902Z,8.95
2022-11-06T08:56:31.173Z,10.23
2022-11-06T08:59:17.115Z,11.40
2022-11-06T09:02:03.189Z,8.23
2022-11-06T09:04:49.382Z,10.18
2022-11-06T09:07:35.271Z,7.85
2022-11-06T09:10:24.191Z,5.03
2022-11-06T09:13:11.379Z,4.82
2022-11-06T09:15:57.586Z,7.53
2022-11-06T09:18:47.076Z,2.53
2022-11-06T09:21:37.607Z,7.07
2022-11-06T09:24:43.608Z,4.22
2022-11-06T09:27:30.052Z,4.07
2022-11-06T09:30:18.167Z,10.57
2022-11-06T09:33:09.170Z,3.67
2022-11-06T09:36:06.768Z,6.65
2022-11-06T09:38:53.081Z,5.38
2022-11-06T09:42:02.093Z,5.43
2022-11-06T09:44:57.650Z,5.70
2022-11-06T09:47:52.508Z,4.50
2022-11-06T09:51:05.819Z,5.95
2022-11-06T09:54:05.637Z,3.55
2022-11-06T09:57:03.192Z,3.05
2022-11-06T09:59:50.950Z,4.78
2022-11-06T10:02:50.965Z,6.93
2022-11-06T10:05:42.259Z,2.20
2022-11-06T10:08:30.654Z,3.38
2022-11-06T10:11:59.181Z,3.03
2022-11-06T10:14:57.914Z,2.45
2022-11-06T10:18:05.306Z,2.10
2022-11-06T10:21:15.161Z,2.05
2022-11-06T10:24:14.800Z,2.95
2022-11-06T10:27:11.603Z,2.80
2022-11-06T10:29:57.553Z,1.45
2022-11-06T10:32:55.651Z,1.83
2022-11-06T10:36:00.163Z,1.48
2022-11-06T10:38:49.042Z,2.53
2022-11-06T10:41:39.007Z,2.08
2022-11-06T10:44:39.773Z,3.42
2022-11-06T10:47:33.807Z,1.67
2022-11-06T10:50:19.985Z,1.45
2022-11-06T10:53:19.036Z,1.30
2022-11-06T10:56:26.055Z,2.20
2022-11-06T10:59:12.885Z,3.88
2022-11-06T11:02:04.731Z,1.55
2022-11-06T11:04:55.435Z,4.38
2022-11-06T11:07:46.624Z,2.20
2022-11-06T11:10:34.758Z,7.00
2022-11-06T11:13:21.563Z,3.47
2022-11-06T11:16:28.238Z,5.05
2022-11-06T11:19:27.643Z,6.65
2022-11-06T11:22:16.470Z,3.97
2022-11-06T11:25:09.156Z,8.57
2022-11-06T11:28:03.681Z,6.17
2022-11-06T11:31:14.452Z,4.57
2022-11-06T11:34:04.274Z,9.10
2022-11-06T11:37:01.125Z,6.18
2022-11-06T11:39:47.449Z,6.53
2022-11-06T11:42:33.701Z,4.88
2022-11-06T11:45:23.214Z,9.43
2022-11-06T11:48:14.043Z,8.27
2022-11-06T11:51:31.642Z,5.50
2022-11-06T11:54:25.580Z,8.85
2022-11-06T11:57:31.941Z,8.32
2022-11-06T12:00:23.144Z,7.20
2022-11-06T12:03:12.445Z,9.25
2022-11-06T12:06:11.497Z,14.15
2022-11-06T12:08:57.648Z,9.82
2022-11-06T12:11:46.969Z,14.90
2022-11-06T12:14:40.254Z,11.52
2022-11-06T12:17:26.625Z,8.93
2022-11-06T12:20:20.851Z,16.63
2022-11-06T12:23:40.432Z,15.45
2022-11-06T12:26:48.091Z,14.20
2022-11-06T12:29:43.726Z,12.85
2022-11-06T12:32:49.176Z,13.48
2022-11-06T12:35:47.179Z,14.02
2022-11-06T12:38:51.163Z,13.32
2022-11-06T12:41:45.253Z,15.60
2022-11-06T12:44:31.308Z,13.57
2022-11-06T12:47:54.034Z,10.85
2022-11-06T12:50:57.021Z,12.25
2022-11-06T12:53:58.528Z,13.98
2022-11-06T12:56:52.571Z,11.65
2022-11-06T13:00:05.292Z,16.45
2022-11-06T13:03:33.142Z,14.80
2022-11-06T13:06:26.879Z,15.57
2022-11-06T13:09:35.646Z,19.05
2022-11-06T13:12:39.980Z,12.07
2022-11-06T13:15:48.045Z,15.25
2022-11-06T13:18:37.262Z,10.90
2022-11-06T13:21:42.220Z,15.85
2022-11-06T13:25:00.825Z,15.63
2022-11-06T13:27:56.781Z,12.85
2022-11-06T13:30:44.150Z,15.38
2022-11-06T13:33:36.203Z,6.88
2022-11-06T13:36:24.029Z,11.75
2022-11-06T13:39:19.722Z,13.25
2022-11-06T13:42:21.007Z,9.63
2022-11-06T13:45:09.552Z,10.23
2022-11-06T13:47:55.685Z,15.73
2022-11-06T13:50:57.616Z,11.65
2022-11-06T13:53:47.014Z,7.80
2022-11-06T13:56:55.836Z,8.95
2022-11-06T14:00:10.476Z,7.40
2022-11-06T14:03:37.963Z,8.32
2022-11-06T14:06:26.658Z,7.60
2022-11-06T14:09:22.484Z,7.88
2022-11-06T14:12:16.855Z,10.85
2022-11-06T14:15:20.928Z,4.43
2022-11-06T14:18:06.857Z,7.10
2022-11-06T14:21:31.579Z,7.95
2022-11-06T14:24:32.390Z,4.32
2022-11-06T14:27:21.498Z,5.97
2022-11-06T14:30:43.762Z,6.68
2022-11-06T14:33:57.642Z,4.55
2022-11-06T14:36:43.598Z,3.53
2022-11-06T14:39:51.143Z,6.68
2022-11-06T14:42:41.942Z,2.25
2022-11-06T14:45:28.236Z,4.05
2022-11-06T14:48:38.295Z,4.15
2022-11-06T14:51:29.452Z,6.00
2022-11-06T14:54:24.550Z,3.58
2022-11-06T14:57:18.538Z,5.80
2022-11-06T15:00:05.149Z,2.42
2022-11-06T15:02:51.413Z,2.50
2022-11-06T15:05:42.195Z,2.70
2022-11-06T15:08:52.939Z,4.68
2022-11-06T15:11:47.946Z,4.68
2022-11-06T15:14:34.473Z,4.93
2022-11-06T15:17:21.824Z,3.97
2022-11-06T15:20:18.157Z,5.43
2022-11-06T15:23:14.624Z,2.45
2022-11-06T15:26:02.954Z,3.13
2022-11-06T15:29:04.291Z,4.30
2022-11-06T15:31:57.597Z,3.45
2022-11-06T15:34:59.083Z,6.33
2022-11-06T15:37:47.995Z,2.35
2022-11-06T15:40:36.798Z,3.00
2022-11-06T15:43:36.433Z,1.52
2022-11-06T15:46:28.238Z,2.33
2022-11-06T15:49:19.607Z,2.67
2022-11-06T15:52:08.979Z,4.32
2022-11-06T15:54:56.642Z,2.58
2022-11-06T15:57:43.069Z,5.32
2022-11-06T16:00:28.983Z,2.35
2022-11-06T16:03:19.953Z,2.22
2022-11-06T16:06:06.526Z,1.65
2022-11-06T16:08:53.103Z,2.45
2022-11-06T16:11:39.467Z,4.93
2022-11-06T16:14:25.686Z,2.67
2022-11-06T16:17:32.317Z,5.95
2022-11-06T16:20:18.446Z,3.25
2022-11-06T16:23:10.787Z,3.42
2022-11-06T16:26:02.380Z,4.50
2022-11-06T16:28:50.044Z,9.00
2022-11-06T16:31:36.698Z,4.20
2022-11-06T16:34:35.697Z,5.72
2022-11-06T16:37:27.683Z,4.95
2022-11-06T16:40:39.880Z,5.63
2022-11-06T16:43:25.697Z,4.47
2022-11-06T16:46:11.979Z,4.65
2022-11-06T16:49:31.109Z,3.40
2022-11-06T16:52:21.428Z,4.60
2022-11-06T16:55:17.499Z,6.72
2022-11-06T16:58:04.565Z,7.32
2022-11-06T17:01:20.508Z,7.32
2022-11-06T17:04:13.545Z,5.85
2022-11-06T17:06:59.628Z,10.23
2022-11-06T17:09:45.558Z,4.95
2022-11-06T17:12:35.460Z,11.57
2022-11-06T17:15:21.501Z,4.47
2022-11-06T17:18:11.195Z,8.27
2022-11-06T17:21:03.551Z,7.32
2022-11-06T17:23:50.439Z,8.18
2022-11-06T17:26:41.129Z,9.48
2022-11-06T17:29:27.339Z,11.10
2022-11-06T17:32:13.584Z,9.55
2022-11-06T17:34:59.365Z,11.13
2022-11-06T17:37:45.202Z,7.82
2022-11-06T17:40:31.479Z,8.20
2022-11-06T17:43:17.855Z,10.35
2022-11-06T17:46:04.142Z,8.10
2022-11-06T17:48:50.125Z,9.68
2022-11-06T17:51:55.449Z,7.50
2022-11-06T17:54:41.562Z,9.80
2022-11-06T17:57:27.553Z,9.35
2022-11-06T18:00:13.998Z,7.75
2022-11-06T18:03:02.457Z,9.63
2022-11-06T18:05:49.204Z,8.57
2022-11-06T18:08:35.025Z,10.13
2022-11-06T18:11:21.048Z,9.38
2022-11-06T18:14:07.745Z,11.32
2022-11-06T18:16:54.261Z,40.15
2022-11-06T18:19:40.687Z,22.90
2022-11-06T18:22:27.351Z,16.10
2022-11-06T18:25:13.368Z,12.25
2022-11-06T18:28:03.496Z,9.88
2022-11-06T18:30:50.377Z,7.35
2022-11-06T18:33:36.325Z,10.88
2022-11-06T18:36:22.277Z,12.77
2022-11-06T18:39:08.623Z,12.10
2022-11-06T18:41:57.927Z,12.02
2022-11-06T18:44:44.095Z,21.40
2022-11-06T18:47:29.960Z,15.23
2022-11-06T18:50:16.234Z,12.55
2022-11-06T18:53:03.649Z,11.27
2022-11-06T18:55:49.814Z,14.98
2022-11-06T18:58:35.922Z,12.77
2022-11-06T19:01:26.282Z,17.83
2022-11-06T19:04:13.020Z,19.85
2022-11-06T19:06:59.333Z,18.02
2022-11-06T19:09:45.228Z,10.25
2022-11-06T19:12:34.438Z,18.95
2022-11-06T19:15:20.644Z,11.40
2022-11-06T19:18:06.520Z,14.00
2022-11-06T19:20:56.682Z,10.25
2022-11-06T19:23:45.088Z,13.27
2022-11-06T19:26:32.316Z,11.00
2022-11-06T19:29:18.797Z,10.95
2022-11-06T19:32:04.738Z,13.35
2022-11-06T19:34:50.733Z,13.10
2022-11-06T19:37:38.391Z,9.27
2022-11-06T19:40:24.758Z,12.45
2022-11-06T19:43:11.234Z,8.95
2022-11-06T19:46:02.757Z,18.38
2022-11-06T19:48:48.888Z,20.05
2022-11-06T19:51:37.571Z,16.15
2022-11-06T19:54:23.788Z,12.45
2022-11-06T19:57:26.908Z,11.43
2022-11-06T20:00:16.268Z,14.15
2022-11-06T20:03:02.508Z,21.27
2022-11-06T20:05:48.338Z,15.88
2022-11-06T20:08:34.689Z,12.43
2022-11-06T20:11:21.184Z,13.65
2022-11-06T20:14:07.349Z,14.70
2022-11-06T20:16:55.627Z,15.68
2022-11-06T20:19:41.796Z,10.63
2022-11-06T20:22:28.218Z,20.77
2022-11-06T20:25:14.539Z,15.80
2022-11-06T20:28:00.621Z,17.20
2022-11-06T20:30:47.797Z,8.95
2022-11-06T20:33:35.923Z,17.73
2022-11-06T20:36:24.725Z,12.60
2022-11-06T20:39:11.201Z,17.95
2022-11-06T20:41:57.401Z,19.88
2022-11-06T20:44:43.522Z,15.30
2022-11-06T20:47:29.697Z,17.45
2022-11-06T20:50:16.154Z,17.55
2022-11-06T20:53:02.568Z,24.40
2022-11-06T20:55:48.874Z,14.45
2022-11-06T20:58:35.222Z,15.43
2022-11-06T21:01:27.387Z,20.27
2022-11-06T21:04:13.801Z,11.07
2022-11-06T21:06:59.677Z,17.02
2022-11-06T21:09:45.603Z,16.55
2022-11-06T21:12:32.369Z,14.40
2022-11-06T21:15:18.459Z,11.32
2022-11-06T21:18:04.353Z,23.25
2022-11-06T21:20:50.377Z,8.15
2022-11-06T21:23:36.957Z,11.73
2022-11-06T21:26:25.665Z,14.10
2022-11-06T21:29:11.956Z,10.77
2022-11-06T21:31:57.718Z,7.90
2022-11-06T21:34:43.853Z,9.93
2022-11-06T21:37:35.533Z,9.90
2022-11-06T21:40:21.739Z,12.77
2022-11-06T21:43:10.432Z,17.55
2022-11-06T21:45:56.714Z,9.25
2022-11-06T21:48:47.590Z,13.02
2022-11-06T21:51:34.387Z,16.27
2022-11-06T21:54:39.405Z,9.43
2022-11-06T22:00:14.455Z,14.02
2022-11-06T22:03:01.354Z,15.23
2022-11-06T22:05:47.600Z,11.15
2022-11-06T22:08:39.458Z,10.55
2022-11-06T22:11:34.592Z,15.88
2022-11-06T22:14:20.529Z,19.77
2022-11-06T22:17:06.447Z,12.98
2022-11-06T22:19:52.223Z,11.43
2022-11-06T22:22:38.647Z,16.05
2022-11-06T22:25:24.674Z,13.82
2022-11-06T22:28:10.906Z,10.82
2022-11-06T22:30:57.227Z,16.02
2022-11-06T22:33:43.206Z,15.25
2022-11-06T22:36:29.256Z,20.15
2022-11-06T22:39:15.268Z,14.68
2022-11-06T22:42:01.213Z,16.95
2022-11-06T22:44:47.719Z,19.10
2022-11-06T22:47:33.986Z,22.10
2022-11-06T22:50:19.990Z,19.52
2022-11-06T22:53:09.448Z,24.33
2022-11-06T22:55:58.726Z,29.20
2022-11-06T22:58:45.027Z,23.48
2022-11-06T23:01:36.144Z,19.02
2022-11-06T23:04:26.320Z,17.40
2022-11-06T23:07:12.287Z,20.95
2022-11-06T23:09:58.307Z,19.35
2022-11-06T23:12:44.108Z,18.42
2022-11-06T23:15:30.774Z,16.25
2022-11-06T23:18:17.631Z,20.77
2022-11-06T23:21:12.699Z,21.42
2022-11-06T23:23:58.751Z,21.27
2022-11-06T23:26:45.013Z,14.15
2022-11-06T23:29:31.337Z,20.35
2022-11-06T23:32:17.706Z,22.70
2022-11-06T23:35:08.093Z,19.25
2022-11-06T23:37:56.388Z,16.60
2022-11-06T23:40:42.386Z,17.05
2022-11-06T23:43:28.363Z,28.52
2022-11-06T23:46:26.034Z,15.65
2022-11-06T23:49:12.203Z,32.92
2022-11-06T23:51:58.549Z,31.00
2022-11-06T23:54:44.460Z,22.70
2022-11-06T23:57:30.724Z,17.45
